Time,TemperatureF,DewpointF,PressureIn,WindDirection,WindDirectionDegrees,WindSpeedMPH,WindSpeedGustMPH,Humidity,HourlyPrecipIn,Conditions,Clouds,dailyrainin,SoftwareType,DateUTC
2013-06-10 00:03:00,62.0,-99.9,-100.00,NW,323,22.0,29.0,-999,-99.99,,,-99.99,,2013-06-10 07:03:00,
2013-06-10 00:12:00,62.0,-99.9,-100.00,NW,323,22.0,29.0,-999,-99.99,,,-99.99,,2013-06-10 07:12:00,
2013-06-10 01:02:00,61.0,-99.9,-100.00,NW,308,28.0,39.0,-999,-99.99,,,-99.99,,2013-06-10 08:02:00,
2013-06-10 01:12:00,61.0,-99.9,-100.00,NW,308,28.0,39.0,-999,-99.99,,,-99.99,,2013-06-10 08:12:00,
2013-06-10 01:52:00,59.0,-99.9,-100.00,NW,309,22.0,30.0,-999,-99.99,,,-99.99,,2013-06-10 08:52:00,
2013-06-10 02:02:00,59.0,-99.9,-100.00,NW,309,22.0,30.0,-999,-99.99,,,-99.99,,2013-06-10 09:02:00,
2013-06-10 02:12:00,59.0,-99.9,-100.00,NW,309,22.0,30.0,-999,-99.99,,,-99.99,,2013-06-10 09:12:00,
2013-06-10 02:54:00,58.0,-99.9,-100.00,WNW,303,27.0,32.0,-999,-99.99,,,-99.99,,2013-06-10 09:54:00,
2013-06-10 03:03:00,58.0,-99.9,-100.00,WNW,303,27.0,32.0,-999,-99.99,,,-99.99,,2013-06-10 10:03:00,
2013-06-10 03:13:00,58.0,-99.9,-100.00,WNW,303,27.0,32.0,-999,-99.99,,,-99.99,,2013-06-10 10:13:00,
2013-06-10 03:53:00,57.0,-99.9,-100.00,WNW,298,21.0,27.0,-999,-99.99,,,-99.99,,2013-06-10 10:53:00,
2013-06-10 04:03:00,57.0,-99.9,-100.00,WNW,298,21.0,27.0,-999,-99.99,,,-99.99,,2013-06-10 11:03:00,
2013-06-10 04:12:00,57.0,-99.9,-100.00,WNW,298,21.0,27.0,-999,-99.99,,,-99.99,,2013-06-10 11:12:00,
2013-06-10 05:02:00,57.0,-99.9,-100.00,NW,304,21.0,25.0,-999,-99.99,,,-99.99,,2013-06-10 12:02:00,
2013-06-10 05:12:00,57.0,-99.9,-100.00,NW,304,21.0,25.0,-999,-99.99,,,-99.99,,2013-06-10 12:12:00,
2013-06-10 06:02:00,56.0,-99.9,-100.00,WNW,296,15.0,17.0,-999,-99.99,,,-99.99,,2013-06-10 13:02:00,
2013-06-10 06:12:00,56.0,-99.9,-100.00,WNW,296,15.0,17.0,-999,-99.99,,,-99.99,,2013-06-10 13:12:00,
2013-06-10 07:02:00,58.0,-99.9,-100.00,NW,313,9.0,14.0,-999,-99.99,,,-99.99,,2013-06-10 14:02:00,
2013-06-10 07:13:00,58.0,-99.9,-100.00,NW,313,9.0,14.0,-999,-99.99,,,-99.99,,2013-06-10 14:13:00,
2013-06-10 08:03:00,58.0,-99.9,-100.00,NNW,334,2.0,5.0,-999,-99.99,,,-99.99,,2013-06-10 15:03:00,
2013-06-10 08:13:00,58.0,-99.9,-100.00,NNW,334,2.0,5.0,-999,-99.99,,,-99.99,,2013-06-10 15:13:00,
2013-06-10 09:03:00,63.0,-99.9,-100.00,NNE,14,3.0,7.0,-999,-99.99,,,-99.99,,2013-06-10 16:03:00,
2013-06-10 09:13:00,63.0,-99.9,-100.00,NNE,14,3.0,7.0,-999,-99.99,,,-99.99,,2013-06-10 16:13:00,
2013-06-10 09:53:00,66.0,-99.9,-100.00,North,355,8.0,17.0,-999,-99.99,,,-99.99,,2013-06-10 16:53:00,
2013-06-10 10:03:00,66.0,-99.9,-100.00,North,355,8.0,17.0,-999,-99.99,,,-99.99,,2013-06-10 17:03:00,
2013-06-10 10:14:00,66.0,-99.9,-100.00,North,355,8.0,17.0,-999,-99.99,,,-99.99,,2013-06-10 17:14:00,
2013-06-10 11:08:00,67.0,-99.9,-100.00,NW,319,3.0,12.0,-999,-99.99,,,-99.99,,2013-06-10 18:08:00,
2013-06-10 11:14:00,67.0,-99.9,-100.00,NW,319,3.0,12.0,-999,-99.99,,,-99.99,,2013-06-10 18:14:00,
2013-06-10 12:03:00,69.0,-99.9,-100.00,SW,229,7.0,15.0,-999,-99.99,,,-99.99,,2013-06-10 19:03:00,
2013-06-10 12:13:00,69.0,-99.9,-100.00,SW,229,7.0,15.0,-999,-99.99,,,-99.99,,2013-06-10 19:13:00,
2013-06-10 13:03:00,73.0,-99.9,-100.00,WSW,249,8.0,14.0,-999,-99.99,,,-99.99,,2013-06-10 20:03:00,
2013-06-10 13:13:00,73.0,-99.9,-100.00,WSW,249,8.0,14.0,-999,-99.99,,,-99.99,,2013-06-10 20:13:00,
2013-06-10 13:53:00,77.0,-99.9,-100.00,ESE,117,5.0,14.0,-999,-99.99,,,-99.99,,2013-06-10 20:53:00,
2013-06-10 14:02:00,77.0,-99.9,-100.00,ESE,117,5.0,14.0,-999,-99.99,,,-99.99,,2013-06-10 21:02:00,
2013-06-10 14:13:00,77.0,-99.9,-100.00,ESE,117,5.0,14.0,-999,-99.99,,,-99.99,,2013-06-10 21:13:00,
2013-06-10 15:03:00,76.0,-99.9,-100.00,NNE,32,12.0,21.0,-999,-99.99,,,-99.99,,2013-06-10 22:03:00,
2013-06-10 15:13:00,76.0,-99.9,-100.00,NNE,32,12.0,21.0,-999,-99.99,,,-99.99,,2013-06-10 22:13:00,
2013-06-10 16:03:00,76.0,-99.9,-100.00,North,5,6.0,14.0,-999,-99.99,,,-99.99,,2013-06-10 23:03:00,
2013-06-10 16:12:00,76.0,-99.9,-100.00,North,5,6.0,14.0,-999,-99.99,,,-99.99,,2013-06-10 23:12:00,
2013-06-10 17:02:00,79.0,-99.9,-100.00,East,85,10.0,17.0,-999,-99.99,,,-99.99,,2013-06-11 00:02:00,
2013-06-10 17:13:00,79.0,-99.9,-100.00,East,85,10.0,17.0,-999,-99.99,,,-99.99,,2013-06-11 00:13:00,
2013-06-10 18:02:00,82.0,-99.9,-100.00,East,88,6.0,14.0,-999,-99.99,,,-99.99,,2013-06-11 01:02:00,
2013-06-10 18:12:00,82.0,-99.9,-100.00,East,88,6.0,14.0,-999,-99.99,,,-99.99,,2013-06-11 01:12:00,
2013-06-10 18:53:00,79.0,-99.9,-100.00,NE,35,6.0,12.0,-999,-99.99,,,-99.99,,2013-06-11 01:53:00,
2013-06-10 19:03:00,79.0,-99.9,-100.00,NE,35,6.0,12.0,-999,-99.99,,,-99.99,,2013-06-11 02:03:00,
2013-06-10 19:12:00,79.0,-99.9,-100.00,NE,35,6.0,12.0,-999,-99.99,,,-99.99,,2013-06-11 02:12:00,
2013-06-10 19:52:00,80.0,-99.9,-100.00,East,99,5.0,10.0,-999,-99.99,,,-99.99,,2013-06-11 02:52:00,
2013-06-10 20:03:00,80.0,-99.9,-100.00,East,99,5.0,10.0,-999,-99.99,,,-99.99,,2013-06-11 03:03:00,
2013-06-10 20:13:00,80.0,-99.9,-100.00,East,99,5.0,10.0,-999,-99.99,,,-99.99,,2013-06-11 03:13:00,
2013-06-10 20:54:00,74.0,-99.9,-100.00,SE,142,15.0,18.0,-999,-99.99,,,-99.99,,2013-06-11 03:54:00,
2013-06-10 21:03:00,74.0,-99.9,-100.00,SE,142,15.0,18.0,-999,-99.99,,,-99.99,,2013-06-11 04:03:00,
2013-06-10 21:13:00,74.0,-99.9,-100.00,SE,142,15.0,18.0,-999,-99.99,,,-99.99,,2013-06-11 04:13:00,
2013-06-10 21:53:00,72.0,-99.9,-100.00,SSE,165,17.0,20.0,-999,-99.99,,,-99.99,,2013-06-11 04:53:00,
2013-06-10 22:02:00,72.0,-99.9,-100.00,SSE,165,17.0,20.0,-999,-99.99,,,-99.99,,2013-06-11 05:02:00,
2013-06-10 22:12:00,72.0,-99.9,-100.00,SSE,165,17.0,20.0,-999,-99.99,,,-99.99,,2013-06-11 05:12:00,
2013-06-10 22:52:00,71.0,-99.9,-100.00,SSE,161,20.0,20.0,-999,-99.99,,,-99.99,,2013-06-11 05:52:00,
2013-06-10 23:02:00,71.0,-99.9,-100.00,SSE,161,20.0,20.0,-999,-99.99,,,-99.99,,2013-06-11 06:02:00,
2013-06-10 23:12:00,71.0,-99.9,-100.00,SSE,161,20.0,20.0,-999,-99.99,,,-99.99,,2013-06-11 06:12:00,
2013-06-10 23:52:00,64.0,-99.9,-100.00,WNW,299,23.0,28.0,-999,-99.99,,,-99.99,,2013-06-11 06:52:00,